sensor_id;sensor_type;location;lat;lon;timestamp;temperature;humidity
7512;DHT22;9999;48.780;9.146;2024-02-21T00:01:30;6.20;99.90
7512;DHT22;9999;48.780;9.146;2024-02-21T00:03:57;6.30;99.90
7512;DHT22;9999;48.780;9.146;2024-02-21T00:06:23;6.20;99.90
7512;DHT22;9999;48.780;9.146;2024-02-21T00:08:51;6.20;99.90
7512;DHT22;9999;48.780;9.146;2024-02-21T00:11:19;6.30;99.90
7512;DHT22;9999;48.780;9.146;2024-02-21T00:13:46;6.20;99.90
7512;DHT22;9999;48.780;9.146;2024-02-21T00:16:13;6.20;99.90
7512;DHT22;9999;48.780;9.146;2024-02-21T00:18:41;6.20;99.90
7512;DHT22;9999;48.780;9.146;2024-02-21T00:21:08;6.20;99.90
7512;DHT22;9999;48.780;9.146;2024-02-21T00:23:35;6.30;99.90
7512;DHT22;9999;48.780;9.146;2024-02-21T00:26:03;6.20;99.90
7512;DHT22;9999;48.780;9.146;2024-02-21T00:28:32;6.20;99.90
7512;DHT22;9999;48.780;9.146;2024-02-21T00:31:00;6.30;99.90
7512;DHT22;9999;48.780;9.146;2024-02-21T00:33:26;6.30;99.90
7512;DHT22;9999;48.780;9.146;2024-02-21T00:35:53;6.30;99.90
7512;DHT22;9999;48.780;9.146;2024-02-21T00:38:20;6.40;99.90
7512;DHT22;9999;48.780;9.146;2024-02-21T00:40:46;6.40;99.90
7512;DHT22;9999;48.780;9.146;2024-02-21T00:43:13;6.30;99.90
7512;DHT22;9999;48.780;9.146;2024-02-21T00:45:41;6.40;99.90
7512;DHT22;9999;48.780;9.146;2024-02-21T00:48:08;6.40;99.90
7512;DHT22;9999;48.780;9.146;2024-02-21T00:50:35;6.50;99.90
7512;DHT22;9999;48.780;9.146;2024-02-21T00:53:03;6.50;99.90
7512;DHT22;9999;48.780;9.146;2024-02-21T00:55:30;6.50;99.90
7512;DHT22;9999;48.780;9.146;2024-02-21T00:57:56;6.50;99.90
7512;DHT22;9999;48.780;9.146;2024-02-21T01:00:23;6.50;99.90
7512;DHT22;9999;48.780;9.146;2024-02-21T01:02:51;6.50;99.90
7512;DHT22;9999;48.780;9.146;2024-02-21T01:05:18;6.50;99.90
7512;DHT22;9999;48.780;9.146;2024-02-21T01:07:45;6.40;99.90
7512;DHT22;9999;48.780;9.146;2024-02-21T01:10:12;6.40;99.90
7512;DHT22;9999;48.780;9.146;2024-02-21T01:12:39;6.40;99.90
7512;DHT22;9999;48.780;9.146;2024-02-21T01:15:06;6.30;99.90
7512;DHT22;9999;48.780;9.146;2024-02-21T01:17:33;6.30;99.90
7512;DHT22;9999;48.780;9.146;2024-02-21T01:20:01;6.30;99.90
7512;DHT22;9999;48.780;9.146;2024-02-21T01:22:28;6.40;99.90
7512;DHT22;9999;48.780;9.146;2024-02-21T01:24:55;6.30;99.90
7512;DHT22;9999;48.780;9.146;2024-02-21T01:27:22;6.30;99.90
7512;DHT22;9999;48.780;9.146;2024-02-21T01:29:48;6.30;99.90
7512;DHT22;9999;48.780;9.146;2024-02-21T01:32:15;6.30;99.90
7512;DHT22;9999;48.780;9.146;2024-02-21T01:34:42;6.30;99.90
7512;DHT22;9999;48.780;9.146;2024-02-21T01:37:10;6.30;99.90
7512;DHT22;9999;48.780;9.146;2024-02-21T01:39:37;6.30;99.90
7512;DHT22;9999;48.780;9.146;2024-02-21T01:42:04;6.20;99.90
7512;DHT22;9999;48.780;9.146;2024-02-21T01:44:31;6.20;99.90
7512;DHT22;9999;48.780;9.146;2024-02-21T01:46:58;6.20;99.90
7512;DHT22;9999;48.780;9.146;2024-02-21T01:49:25;6.20;99.90
7512;DHT22;9999;48.780;9.146;2024-02-21T01:51:52;6.10;99.90
7512;DHT22;9999;48.780;9.146;2024-02-21T01:54:21;6.10;99.90
7512;DHT22;9999;48.780;9.146;2024-02-21T01:56:48;6.10;99.90
7512;DHT22;9999;48.780;9.146;2024-02-21T01:59:16;6.10;99.90
7512;DHT22;9999;48.780;9.146;2024-02-21T02:01:43;6.10;99.90
7512;DHT22;9999;48.780;9.146;2024-02-21T02:04:10;6.10;99.90
7512;DHT22;9999;48.780;9.146;2024-02-21T02:06:37;6.10;99.90
7512;DHT22;9999;48.780;9.146;2024-02-21T02:09:04;6.10;99.90
7512;DHT22;9999;48.780;9.146;2024-02-21T02:11:33;6.10;99.90
7512;DHT22;9999;48.780;9.146;2024-02-21T02:13:59;6.10;99.90
7512;DHT22;9999;48.780;9.146;2024-02-21T02:16:26;6.10;99.90
7512;DHT22;9999;48.780;9.146;2024-02-21T02:18:53;6.10;99.90
7512;DHT22;9999;48.780;9.146;2024-02-21T02:21:28;6.10;99.90
7512;DHT22;9999;48.780;9.146;2024-02-21T02:23:57;6.20;99.90
7512;DHT22;9999;48.780;9.146;2024-02-21T02:26:25;6.10;99.90
7512;DHT22;9999;48.780;9.146;2024-02-21T02:28:53;6.10;99.90
7512;DHT22;9999;48.780;9.146;2024-02-21T02:31:20;6.20;99.90
7512;DHT22;9999;48.780;9.146;2024-02-21T02:33:46;6.20;99.90
7512;DHT22;9999;48.780;9.146;2024-02-21T02:36:13;6.20;99.90
7512;DHT22;9999;48.780;9.146;2024-02-21T02:38:40;6.20;99.90
7512;DHT22;9999;48.780;9.146;2024-02-21T02:41:08;6.20;99.90
7512;DHT22;9999;48.780;9.146;2024-02-21T02:43:35;6.10;99.90
7512;DHT22;9999;48.780;9.146;2024-02-21T02:46:02;6.20;99.90
7512;DHT22;9999;48.780;9.146;2024-02-21T02:48:29;6.30;99.90
7512;DHT22;9999;48.780;9.146;2024-02-21T02:50:56;6.10;99.90
7512;DHT22;9999;48.780;9.146;2024-02-21T02:53:23;6.10;99.90
7512;DHT22;9999;48.780;9.146;2024-02-21T02:55:50;6.20;99.90
7512;DHT22;9999;48.780;9.146;2024-02-21T02:58:18;6.20;99.90
7512;DHT22;9999;48.780;9.146;2024-02-21T03:00:45;6.10;99.90
7512;DHT22;9999;48.780;9.146;2024-02-21T03:03:11;6.10;99.90
7512;DHT22;9999;48.780;9.146;2024-02-21T03:05:38;6.10;99.90
7512;DHT22;9999;48.780;9.146;2024-02-21T03:08:05;6.20;99.90
7512;DHT22;9999;48.780;9.146;2024-02-21T03:10:33;6.10;99.90
7512;DHT22;9999;48.780;9.146;2024-02-21T03:13:00;6.10;99.90
7512;DHT22;9999;48.780;9.146;2024-02-21T03:15:28;6.10;99.90
7512;DHT22;9999;48.780;9.146;2024-02-21T03:17:55;6.00;99.90
7512;DHT22;9999;48.780;9.146;2024-02-21T03:20:22;6.00;99.90
7512;DHT22;9999;48.780;9.146;2024-02-21T03:22:49;6.00;99.90
7512;DHT22;9999;48.780;9.146;2024-02-21T03:25:15;6.10;99.90
7512;DHT22;9999;48.780;9.146;2024-02-21T03:27:42;6.10;99.90
7512;DHT22;9999;48.780;9.146;2024-02-21T03:30:13;6.10;99.90
7512;DHT22;9999;48.780;9.146;2024-02-21T03:32:41;6.20;99.90
7512;DHT22;9999;48.780;9.146;2024-02-21T03:35:08;6.20;99.90
7512;DHT22;9999;48.780;9.146;2024-02-21T03:37:35;6.20;99.90
7512;DHT22;9999;48.780;9.146;2024-02-21T03:40:02;6.20;99.90
7512;DHT22;9999;48.780;9.146;2024-02-21T03:42:32;6.10;99.90
7512;DHT22;9999;48.780;9.146;2024-02-21T03:44:59;6.10;99.90
7512;DHT22;9999;48.780;9.146;2024-02-21T03:47:26;6.10;99.90
7512;DHT22;9999;48.780;9.146;2024-02-21T03:49:54;6.10;99.90
7512;DHT22;9999;48.780;9.146;2024-02-21T03:52:20;6.00;99.90
7512;DHT22;9999;48.780;9.146;2024-02-21T03:54:47;6.00;99.90
7512;DHT22;9999;48.780;9.146;2024-02-21T03:57:14;6.00;99.90
7512;DHT22;9999;48.780;9.146;2024-02-21T03:59:41;6.00;99.90
7512;DHT22;9999;48.780;9.146;2024-02-21T04:02:07;6.00;99.90
7512;DHT22;9999;48.780;9.146;2024-02-21T04:04:34;6.00;99.90
7512;DHT22;9999;48.780;9.146;2024-02-21T04:07:04;6.00;99.90
7512;DHT22;9999;48.780;9.146;2024-02-21T04:09:32;6.10;99.90
7512;DHT22;9999;48.780;9.146;2024-02-21T04:12:00;6.10;99.90
7512;DHT22;9999;48.780;9.146;2024-02-21T04:14:27;6.10;99.90
7512;DHT22;9999;48.780;9.146;2024-02-21T04:16:54;6.10;99.90
7512;DHT22;9999;48.780;9.146;2024-02-21T04:19:20;6.20;99.90
7512;DHT22;9999;48.780;9.146;2024-02-21T04:21:47;6.10;99.90
7512;DHT22;9999;48.780;9.146;2024-02-21T04:24:15;6.10;99.90
7512;DHT22;9999;48.780;9.146;2024-02-21T04:26:42;6.00;99.90
7512;DHT22;9999;48.780;9.146;2024-02-21T04:29:09;5.90;99.90
7512;DHT22;9999;48.780;9.146;2024-02-21T04:31:36;5.80;99.90
7512;DHT22;9999;48.780;9.146;2024-02-21T04:34:02;5.90;99.90
7512;DHT22;9999;48.780;9.146;2024-02-21T04:36:29;5.80;99.90
7512;DHT22;9999;48.780;9.146;2024-02-21T04:38:56;5.80;99.90
7512;DHT22;9999;48.780;9.146;2024-02-21T04:41:25;5.90;99.90
7512;DHT22;9999;48.780;9.146;2024-02-21T04:43:52;5.80;99.90
7512;DHT22;9999;48.780;9.146;2024-02-21T04:46:18;5.80;99.90
7512;DHT22;9999;48.780;9.146;2024-02-21T04:48:45;5.90;99.90
7512;DHT22;9999;48.780;9.146;2024-02-21T04:51:12;5.80;99.90
7512;DHT22;9999;48.780;9.146;2024-02-21T04:53:39;5.80;99.90
7512;DHT22;9999;48.780;9.146;2024-02-21T04:56:06;5.80;99.90
7512;DHT22;9999;48.780;9.146;2024-02-21T04:58:37;5.80;99.90
7512;DHT22;9999;48.780;9.146;2024-02-21T05:01:05;5.80;99.90
7512;DHT22;9999;48.780;9.146;2024-02-21T05:03:31;5.80;99.90
7512;DHT22;9999;48.780;9.146;2024-02-21T05:05:59;5.70;99.90
7512;DHT22;9999;48.780;9.146;2024-02-21T05:08:26;5.60;99.90
7512;DHT22;9999;48.780;9.146;2024-02-21T05:10:52;5.60;99.90
7512;DHT22;9999;48.780;9.146;2024-02-21T05:13:20;5.70;99.90
7512;DHT22;9999;48.780;9.146;2024-02-21T05:15:48;5.60;99.90
7512;DHT22;9999;48.780;9.146;2024-02-21T05:18:15;5.60;99.90
7512;DHT22;9999;48.780;9.146;2024-02-21T05:20:41;5.50;99.90
7512;DHT22;9999;48.780;9.146;2024-02-21T05:23:08;5.60;99.90
7512;DHT22;9999;48.780;9.146;2024-02-21T05:25:35;5.50;99.90
7512;DHT22;9999;48.780;9.146;2024-02-21T05:28:02;5.50;99.90
7512;DHT22;9999;48.780;9.146;2024-02-21T05:30:29;5.40;99.90
7512;DHT22;9999;48.780;9.146;2024-02-21T05:32:57;5.40;99.90
7512;DHT22;9999;48.780;9.146;2024-02-21T05:35:27;5.40;99.90
7512;DHT22;9999;48.780;9.146;2024-02-21T05:37:54;5.40;99.90
7512;DHT22;9999;48.780;9.146;2024-02-21T05:40:20;5.50;99.90
7512;DHT22;9999;48.780;9.146;2024-02-21T05:42:47;5.50;99.90
7512;DHT22;9999;48.780;9.146;2024-02-21T05:45:14;5.50;99.90
7512;DHT22;9999;48.780;9.146;2024-02-21T05:47:41;5.50;99.90
7512;DHT22;9999;48.780;9.146;2024-02-21T05:50:10;5.60;99.90
7512;DHT22;9999;48.780;9.146;2024-02-21T05:52:36;5.70;99.90
7512;DHT22;9999;48.780;9.146;2024-02-21T05:55:04;5.60;99.90
7512;DHT22;9999;48.780;9.146;2024-02-21T05:57:32;5.70;99.90
7512;DHT22;9999;48.780;9.146;2024-02-21T05:59:59;5.70;99.90
7512;DHT22;9999;48.780;9.146;2024-02-21T06:02:27;5.60;99.90
7512;DHT22;9999;48.780;9.146;2024-02-21T06:04:54;5.60;99.90
7512;DHT22;9999;48.780;9.146;2024-02-21T06:07:22;5.60;99.90
7512;DHT22;9999;48.780;9.146;2024-02-21T06:09:49;5.50;99.90
7512;DHT22;9999;48.780;9.146;2024-02-21T06:12:16;5.50;99.90
7512;DHT22;9999;48.780;9.146;2024-02-21T06:14:42;5.50;99.90
7512;DHT22;9999;48.780;9.146;2024-02-21T06:17:09;5.40;99.90
7512;DHT22;9999;48.780;9.146;2024-02-21T06:19:39;5.40;99.90
7512;DHT22;9999;48.780;9.146;2024-02-21T06:22:06;5.40;99.90
7512;DHT22;9999;48.780;9.146;2024-02-21T06:24:34;5.40;99.90
7512;DHT22;9999;48.780;9.146;2024-02-21T06:27:02;5.40;99.90
7512;DHT22;9999;48.780;9.146;2024-02-21T06:29:28;5.50;99.90
7512;DHT22;9999;48.780;9.146;2024-02-21T06:31:55;5.50;99.90
7512;DHT22;9999;48.780;9.146;2024-02-21T06:34:22;5.50;99.90
7512;DHT22;9999;48.780;9.146;2024-02-21T06:36:49;5.40;99.90
7512;DHT22;9999;48.780;9.146;2024-02-21T06:39:16;5.40;99.90
7512;DHT22;9999;48.780;9.146;2024-02-21T06:41:44;5.30;99.90
7512;DHT22;9999;48.780;9.146;2024-02-21T06:44:12;5.30;99.90
7512;DHT22;9999;48.780;9.146;2024-02-21T06:46:39;5.30;99.90
7512;DHT22;9999;48.780;9.146;2024-02-21T06:49:05;5.30;99.90
7512;DHT22;9999;48.780;9.146;2024-02-21T06:51:32;5.30;99.90
7512;DHT22;9999;48.780;9.146;2024-02-21T06:54:00;5.30;99.90
7512;DHT22;9999;48.780;9.146;2024-02-21T06:56:27;5.40;99.90
7512;DHT22;9999;48.780;9.146;2024-02-21T06:58:55;5.40;99.90
7512;DHT22;9999;48.780;9.146;2024-02-21T07:01:22;5.40;99.90
7512;DHT22;9999;48.780;9.146;2024-02-21T07:03:49;5.50;99.90
7512;DHT22;9999;48.780;9.146;2024-02-21T07:06:16;5.50;99.90
7512;DHT22;9999;48.780;9.146;2024-02-21T07:08:43;5.50;99.90
7512;DHT22;9999;48.780;9.146;2024-02-21T07:11:11;5.50;99.90
7512;DHT22;9999;48.780;9.146;2024-02-21T07:13:37;5.50;99.90
7512;DHT22;9999;48.780;9.146;2024-02-21T07:16:07;5.60;99.90
7512;DHT22;9999;48.780;9.146;2024-02-21T07:18:36;5.60;99.90
7512;DHT22;9999;48.780;9.146;2024-02-21T07:21:03;5.80;99.90
7512;DHT22;9999;48.780;9.146;2024-02-21T07:23:30;6.00;99.90
7512;DHT22;9999;48.780;9.146;2024-02-21T07:25:57;6.20;99.90
7512;DHT22;9999;48.780;9.146;2024-02-21T07:28:23;6.40;99.90
7512;DHT22;9999;48.780;9.146;2024-02-21T07:30:50;6.50;99.90
7512;DHT22;9999;48.780;9.146;2024-02-21T07:33:18;6.80;99.90
7512;DHT22;9999;48.780;9.146;2024-02-21T07:35:45;7.00;99.90
7512;DHT22;9999;48.780;9.146;2024-02-21T07:38:11;7.10;99.90
7512;DHT22;9999;48.780;9.146;2024-02-21T07:40:39;7.10;99.90
7512;DHT22;9999;48.780;9.146;2024-02-21T07:43:06;7.20;99.90
7512;DHT22;9999;48.780;9.146;2024-02-21T07:45:33;7.50;99.90
7512;DHT22;9999;48.780;9.146;2024-02-21T07:48:00;7.80;99.90
7512;DHT22;9999;48.780;9.146;2024-02-21T07:50:29;7.90;99.90
7512;DHT22;9999;48.780;9.146;2024-02-21T07:52:55;8.00;99.90
7512;DHT22;9999;48.780;9.146;2024-02-21T07:55:22;8.10;99.90
7512;DHT22;9999;48.780;9.146;2024-02-21T07:57:49;7.90;99.90
7512;DHT22;9999;48.780;9.146;2024-02-21T08:00:17;8.10;99.90
7512;DHT22;9999;48.780;9.146;2024-02-21T08:02:48;8.00;99.90
7512;DHT22;9999;48.780;9.146;2024-02-21T08:05:15;8.00;99.90
7512;DHT22;9999;48.780;9.146;2024-02-21T08:07:43;7.80;99.90
7512;DHT22;9999;48.780;9.146;2024-02-21T08:10:10;7.90;99.90
7512;DHT22;9999;48.780;9.146;2024-02-21T08:12:37;7.80;99.90
7512;DHT22;9999;48.780;9.146;2024-02-21T08:15:04;7.80;99.90
7512;DHT22;9999;48.780;9.146;2024-02-21T08:17:33;8.00;99.90
7512;DHT22;9999;48.780;9.146;2024-02-21T08:20:00;8.00;99.90
7512;DHT22;9999;48.780;9.146;2024-02-21T08:22:27;8.30;99.90
7512;DHT22;9999;48.780;9.146;2024-02-21T08:24:55;8.40;99.90
7512;DHT22;9999;48.780;9.146;2024-02-21T08:27:22;8.70;99.90
7512;DHT22;9999;48.780;9.146;2024-02-21T08:29:48;8.60;99.90
7512;DHT22;9999;48.780;9.146;2024-02-21T08:32:15;8.80;99.90
7512;DHT22;9999;48.780;9.146;2024-02-21T08:34:42;9.00;99.90
7512;DHT22;9999;48.780;9.146;2024-02-21T08:37:09;9.10;99.90
7512;DHT22;9999;48.780;9.146;2024-02-21T08:39:36;9.30;99.90
7512;DHT22;9999;48.780;9.146;2024-02-21T08:42:04;9.20;99.90
7512;DHT22;9999;48.780;9.146;2024-02-21T08:44:31;9.30;99.90
7512;DHT22;9999;48.780;9.146;2024-02-21T08:46:58;9.40;99.90
7512;DHT22;9999;48.780;9.146;2024-02-21T08:49:25;9.20;99.90
7512;DHT22;9999;48.780;9.146;2024-02-21T08:51:54;9.20;99.90
7512;DHT22;9999;48.780;9.146;2024-02-21T08:54:20;8.90;99.90
7512;DHT22;9999;48.780;9.146;2024-02-21T08:56:47;8.80;99.90
7512;DHT22;9999;48.780;9.146;2024-02-21T08:59:15;8.60;99.90
7512;DHT22;9999;48.780;9.146;2024-02-21T09:01:42;8.60;99.90
7512;DHT22;9999;48.780;9.146;2024-02-21T09:04:09;8.70;99.90
7512;DHT22;9999;48.780;9.146;2024-02-21T09:06:35;8.70;99.90
7512;DHT22;9999;48.780;9.146;2024-02-21T09:09:04;8.60;99.90
7512;DHT22;9999;48.780;9.146;2024-02-21T09:11:33;8.70;99.90
7512;DHT22;9999;48.780;9.146;2024-02-21T09:14:00;8.80;99.90
7512;DHT22;9999;48.780;9.146;2024-02-21T09:16:30;8.90;99.90
7512;DHT22;9999;48.780;9.146;2024-02-21T09:18:57;9.10;99.90
7512;DHT22;9999;48.780;9.146;2024-02-21T09:21:24;9.10;99.90
7512;DHT22;9999;48.780;9.146;2024-02-21T09:23:51;9.00;99.90
7512;DHT22;9999;48.780;9.146;2024-02-21T09:26:17;8.90;99.90
7512;DHT22;9999;48.780;9.146;2024-02-21T09:28:44;8.90;99.90
7512;DHT22;9999;48.780;9.146;2024-02-21T09:31:11;8.80;99.90
7512;DHT22;9999;48.780;9.146;2024-02-21T09:33:40;9.00;99.90
7512;DHT22;9999;48.780;9.146;2024-02-21T09:36:07;9.00;99.90
7512;DHT22;9999;48.780;9.146;2024-02-21T09:38:33;9.10;99.90
7512;DHT22;9999;48.780;9.146;2024-02-21T09:41:08;9.30;99.90
7512;DHT22;9999;48.780;9.146;2024-02-21T09:43:37;9.30;99.90
7512;DHT22;9999;48.780;9.146;2024-02-21T09:46:08;9.60;99.90
7512;DHT22;9999;48.780;9.146;2024-02-21T09:48:50;9.80;99.90
7512;DHT22;9999;48.780;9.146;2024-02-21T09:51:20;9.90;99.90
7512;DHT22;9999;48.780;9.146;2024-02-21T09:53:49;10.00;99.90
7512;DHT22;9999;48.780;9.146;2024-02-21T09:56:17;10.00;99.90
7512;DHT22;9999;48.780;9.146;2024-02-21T09:58:44;10.00;99.90
7512;DHT22;9999;48.780;9.146;2024-02-21T10:01:13;10.10;99.90
7512;DHT22;9999;48.780;9.146;2024-02-21T10:03:41;10.30;99.90
7512;DHT22;9999;48.780;9.146;2024-02-21T10:06:09;10.50;99.90
7512;DHT22;9999;48.780;9.146;2024-02-21T10:08:35;10.40;99.90
7512;DHT22;9999;48.780;9.146;2024-02-21T10:11:02;10.00;99.90
7512;DHT22;9999;48.780;9.146;2024-02-21T10:13:30;10.00;99.90
7512;DHT22;9999;48.780;9.146;2024-02-21T10:16:04;10.20;99.90
7512;DHT22;9999;48.780;9.146;2024-02-21T10:18:31;10.60;99.90
7512;DHT22;9999;48.780;9.146;2024-02-21T10:21:07;10.60;99.90
7512;DHT22;9999;48.780;9.146;2024-02-21T10:23:44;10.80;99.90
7512;DHT22;9999;48.780;9.146;2024-02-21T10:26:11;10.90;99.90
7512;DHT22;9999;48.780;9.146;2024-02-21T10:28:38;11.00;99.90
7512;DHT22;9999;48.780;9.146;2024-02-21T10:31:08;11.10;99.90
7512;DHT22;9999;48.780;9.146;2024-02-21T10:33:36;11.10;99.90
7512;DHT22;9999;48.780;9.146;2024-02-21T10:36:08;11.30;99.90
7512;DHT22;9999;48.780;9.146;2024-02-21T10:38:37;11.50;99.90
7512;DHT22;9999;48.780;9.146;2024-02-21T10:41:05;11.70;99.90
7512;DHT22;9999;48.780;9.146;2024-02-21T10:43:37;11.60;99.90
7512;DHT22;9999;48.780;9.146;2024-02-21T10:46:06;11.40;99.90
7512;DHT22;9999;48.780;9.146;2024-02-21T10:48:41;11.30;99.90
7512;DHT22;9999;48.780;9.146;2024-02-21T10:51:17;11.30;99.90
7512;DHT22;9999;48.780;9.146;2024-02-21T10:53:50;11.30;99.90
7512;DHT22;9999;48.780;9.146;2024-02-21T10:56:30;11.40;99.90
7512;DHT22;9999;48.780;9.146;2024-02-21T10:59:01;11.20;99.90
7512;DHT22;9999;48.780;9.146;2024-02-21T11:01:29;11.40;99.90
7512;DHT22;9999;48.780;9.146;2024-02-21T11:03:59;11.50;99.90
7512;DHT22;9999;48.780;9.146;2024-02-21T11:06:28;11.50;99.90
7512;DHT22;9999;48.780;9.146;2024-02-21T11:09:02;11.40;99.90
7512;DHT22;9999;48.780;9.146;2024-02-21T11:11:33;11.20;99.90
7512;DHT22;9999;48.780;9.146;2024-02-21T11:14:10;11.30;99.90
7512;DHT22;9999;48.780;9.146;2024-02-21T11:16:40;11.40;99.90
7512;DHT22;9999;48.780;9.146;2024-02-21T11:19:08;11.50;99.90
7512;DHT22;9999;48.780;9.146;2024-02-21T11:21:37;11.50;99.90
7512;DHT22;9999;48.780;9.146;2024-02-21T11:24:05;11.50;99.90
7512;DHT22;9999;48.780;9.146;2024-02-21T11:26:32;11.70;99.90
7512;DHT22;9999;48.780;9.146;2024-02-21T11:28:59;11.60;99.90
7512;DHT22;9999;48.780;9.146;2024-02-21T11:31:25;11.40;99.90
7512;DHT22;9999;48.780;9.146;2024-02-21T11:33:53;11.40;99.90
7512;DHT22;9999;48.780;9.146;2024-02-21T11:36:24;11.70;99.90
7512;DHT22;9999;48.780;9.146;2024-02-21T11:38:53;11.80;99.90
7512;DHT22;9999;48.780;9.146;2024-02-21T11:41:20;11.90;99.90
7512;DHT22;9999;48.780;9.146;2024-02-21T11:43:48;11.90;99.90
7512;DHT22;9999;48.780;9.146;2024-02-21T11:46:15;11.80;99.90
7512;DHT22;9999;48.780;9.146;2024-02-21T11:48:42;12.00;99.90
7512;DHT22;9999;48.780;9.146;2024-02-21T11:51:21;12.10;99.90
7512;DHT22;9999;48.780;9.146;2024-02-21T11:53:50;11.90;99.90
7512;DHT22;9999;48.780;9.146;2024-02-21T11:56:19;11.90;99.90
7512;DHT22;9999;48.780;9.146;2024-02-21T11:58:46;11.90;99.90
7512;DHT22;9999;48.780;9.146;2024-02-21T12:01:13;11.70;99.90
7512;DHT22;9999;48.780;9.146;2024-02-21T12:03:39;11.70;99.90
7512;DHT22;9999;48.780;9.146;2024-02-21T12:06:07;11.80;99.90
7512;DHT22;9999;48.780;9.146;2024-02-21T12:08:43;11.70;99.90
7512;DHT22;9999;48.780;9.146;2024-02-21T12:11:21;11.80;99.90
7512;DHT22;9999;48.780;9.146;2024-02-21T12:13:58;11.80;99.90
7512;DHT22;9999;48.780;9.146;2024-02-21T12:16:27;11.60;99.90
7512;DHT22;9999;48.780;9.146;2024-02-21T12:18:54;11.50;99.90
7512;DHT22;9999;48.780;9.146;2024-02-21T12:21:24;11.60;99.90
7512;DHT22;9999;48.780;9.146;2024-02-21T12:23:51;11.70;99.90
7512;DHT22;9999;48.780;9.146;2024-02-21T12:26:18;11.80;99.90
7512;DHT22;9999;48.780;9.146;2024-02-21T12:28:46;11.80;99.90
7512;DHT22;9999;48.780;9.146;2024-02-21T12:31:12;11.90;99.90
7512;DHT22;9999;48.780;9.146;2024-02-21T12:33:39;12.10;99.90
7512;DHT22;9999;48.780;9.146;2024-02-21T12:36:07;12.20;99.90
7512;DHT22;9999;48.780;9.146;2024-02-21T12:38:34;12.30;96.60
7512;DHT22;9999;48.780;9.146;2024-02-21T12:41:01;12.10;99.30
7512;DHT22;9999;48.780;9.146;2024-02-21T12:43:28;12.00;98.00
7512;DHT22;9999;48.780;9.146;2024-02-21T12:45:56;12.00;97.40
7512;DHT22;9999;48.780;9.146;2024-02-21T12:48:23;12.10;99.90
7512;DHT22;9999;48.780;9.146;2024-02-21T12:50:51;12.20;99.90
7512;DHT22;9999;48.780;9.146;2024-02-21T12:53:18;12.20;99.90
7512;DHT22;9999;48.780;9.146;2024-02-21T12:55:46;12.20;98.40
7512;DHT22;9999;48.780;9.146;2024-02-21T12:58:14;12.20;99.50
7512;DHT22;9999;48.780;9.146;2024-02-21T13:00:41;12.30;99.90
7512;DHT22;9999;48.780;9.146;2024-02-21T13:03:10;12.40;99.10
7512;DHT22;9999;48.780;9.146;2024-02-21T13:05:37;12.30;99.90
7512;DHT22;9999;48.780;9.146;2024-02-21T13:08:05;12.20;99.50
7512;DHT22;9999;48.780;9.146;2024-02-21T13:10:31;12.30;97.50
7512;DHT22;9999;48.780;9.146;2024-02-21T13:12:59;12.30;99.90
7512;DHT22;9999;48.780;9.146;2024-02-21T13:15:26;12.40;99.40
7512;DHT22;9999;48.780;9.146;2024-02-21T13:17:53;12.40;99.70
7512;DHT22;9999;48.780;9.146;2024-02-21T13:20:22;12.40;95.40
7512;DHT22;9999;48.780;9.146;2024-02-21T13:22:48;12.50;94.70
7512;DHT22;9999;48.780;9.146;2024-02-21T13:25:15;12.60;97.40
7512;DHT22;9999;48.780;9.146;2024-02-21T13:27:45;12.60;94.80
7512;DHT22;9999;48.780;9.146;2024-02-21T13:30:13;12.50;96.80
7512;DHT22;9999;48.780;9.146;2024-02-21T13:32:41;12.50;98.50
7512;DHT22;9999;48.780;9.146;2024-02-21T13:35:08;12.50;97.60
7512;DHT22;9999;48.780;9.146;2024-02-21T13:37:38;12.40;97.30
7512;DHT22;9999;48.780;9.146;2024-02-21T13:40:06;12.40;96.30
7512;DHT22;9999;48.780;9.146;2024-02-21T13:42:34;12.50;94.30
7512;DHT22;9999;48.780;9.146;2024-02-21T13:45:01;12.60;96.50
7512;DHT22;9999;48.780;9.146;2024-02-21T13:47:28;12.70;98.50
7512;DHT22;9999;48.780;9.146;2024-02-21T13:49:55;12.50;97.20
7512;DHT22;9999;48.780;9.146;2024-02-21T13:52:22;12.50;96.80
7512;DHT22;9999;48.780;9.146;2024-02-21T13:54:53;12.40;94.90
7512;DHT22;9999;48.780;9.146;2024-02-21T13:57:20;12.30;95.60
7512;DHT22;9999;48.780;9.146;2024-02-21T13:59:46;12.30;94.30
7512;DHT22;9999;48.780;9.146;2024-02-21T14:02:13;12.20;93.20
7512;DHT22;9999;48.780;9.146;2024-02-21T14:04:40;12.20;95.50
7512;DHT22;9999;48.780;9.146;2024-02-21T14:07:08;12.30;92.90
7512;DHT22;9999;48.780;9.146;2024-02-21T14:09:35;12.30;92.60
7512;DHT22;9999;48.780;9.146;2024-02-21T14:12:04;12.30;95.00
7512;DHT22;9999;48.780;9.146;2024-02-21T14:14:34;12.20;94.10
7512;DHT22;9999;48.780;9.146;2024-02-21T14:17:01;12.10;92.80
7512;DHT22;9999;48.780;9.146;2024-02-21T14:19:29;12.20;92.70
7512;DHT22;9999;48.780;9.146;2024-02-21T14:21:56;12.10;94.80
7512;DHT22;9999;48.780;9.146;2024-02-21T14:24:23;12.00;90.50
7512;DHT22;9999;48.780;9.146;2024-02-21T14:26:49;11.90;92.10
7512;DHT22;9999;48.780;9.146;2024-02-21T14:29:17;11.90;93.00
7512;DHT22;9999;48.780;9.146;2024-02-21T14:31:43;11.90;92.50
7512;DHT22;9999;48.780;9.146;2024-02-21T14:34:10;11.90;90.60
7512;DHT22;9999;48.780;9.146;2024-02-21T14:36:37;11.90;91.50
7512;DHT22;9999;48.780;9.146;2024-02-21T14:39:04;11.90;87.10
7512;DHT22;9999;48.780;9.146;2024-02-21T14:41:31;11.90;90.90
7512;DHT22;9999;48.780;9.146;2024-02-21T14:43:58;11.90;90.70
7512;DHT22;9999;48.780;9.146;2024-02-21T14:46:27;12.00;90.00
7512;DHT22;9999;48.780;9.146;2024-02-21T14:48:54;12.00;91.10
7512;DHT22;9999;48.780;9.146;2024-02-21T14:51:21;12.00;93.20
7512;DHT22;9999;48.780;9.146;2024-02-21T14:53:47;12.00;92.80
7512;DHT22;9999;48.780;9.146;2024-02-21T14:56:15;12.10;91.00
7512;DHT22;9999;48.780;9.146;2024-02-21T14:58:43;11.90;91.30
7512;DHT22;9999;48.780;9.146;2024-02-21T15:01:10;11.90;92.70
7512;DHT22;9999;48.780;9.146;2024-02-21T15:03:39;11.80;90.70
7512;DHT22;9999;48.780;9.146;2024-02-21T15:06:06;11.70;91.90
7512;DHT22;9999;48.780;9.146;2024-02-21T15:08:33;11.70;90.90
7512;DHT22;9999;48.780;9.146;2024-02-21T15:11:01;11.70;91.00
7512;DHT22;9999;48.780;9.146;2024-02-21T15:13:28;11.60;88.10
7512;DHT22;9999;48.780;9.146;2024-02-21T15:15:56;11.60;90.20
7512;DHT22;9999;48.780;9.146;2024-02-21T15:18:22;11.50;90.80
7512;DHT22;9999;48.780;9.146;2024-02-21T15:20:50;11.60;91.70
7512;DHT22;9999;48.780;9.146;2024-02-21T15:23:18;11.60;90.70
7512;DHT22;9999;48.780;9.146;2024-02-21T15:25:45;11.60;92.40
7512;DHT22;9999;48.780;9.146;2024-02-21T15:28:12;11.60;91.70
7512;DHT22;9999;48.780;9.146;2024-02-21T15:30:39;11.60;91.50
7512;DHT22;9999;48.780;9.146;2024-02-21T15:33:06;11.70;90.40
7512;DHT22;9999;48.780;9.146;2024-02-21T15:35:33;11.70;92.70
7512;DHT22;9999;48.780;9.146;2024-02-21T15:38:01;11.50;91.70
7512;DHT22;9999;48.780;9.146;2024-02-21T15:40:28;11.60;92.20
7512;DHT22;9999;48.780;9.146;2024-02-21T15:42:55;11.60;89.20
7512;DHT22;9999;48.780;9.146;2024-02-21T15:45:22;11.70;90.40
7512;DHT22;9999;48.780;9.146;2024-02-21T15:47:49;11.60;91.90
7512;DHT22;9999;48.780;9.146;2024-02-21T15:50:16;11.60;92.20
7512;DHT22;9999;48.780;9.146;2024-02-21T15:52:44;11.60;96.20
7512;DHT22;9999;48.780;9.146;2024-02-21T15:55:13;11.60;95.70
7512;DHT22;9999;48.780;9.146;2024-02-21T15:57:39;11.60;95.00
7512;DHT22;9999;48.780;9.146;2024-02-21T16:00:07;11.70;96.20
7512;DHT22;9999;48.780;9.146;2024-02-21T16:02:39;11.60;97.00
7512;DHT22;9999;48.780;9.146;2024-02-21T16:05:07;11.50;98.90
7512;DHT22;9999;48.780;9.146;2024-02-21T16:07:35;11.50;99.90
7512;DHT22;9999;48.780;9.146;2024-02-21T16:10:03;11.40;99.90
7512;DHT22;9999;48.780;9.146;2024-02-21T16:12:32;11.40;99.90
7512;DHT22;9999;48.780;9.146;2024-02-21T16:14:59;11.40;99.90